sensor_id;sensor_type;location;lat;lon;timestamp;P1;durP1;ratioP1;P2;durP2;ratioP2
5343;SDS011;2694;48.954;8.928;2023-11-22T00:01:20;3.20;;;1.70;;
5343;SDS011;2694;48.954;8.928;2023-11-22T00:03:47;5.03;;;2.10;;
5343;SDS011;2694;48.954;8.928;2023-11-22T00:06:15;5.15;;;1.90;;
5343;SDS011;2694;48.954;8.928;2023-11-22T00:08:45;3.00;;;1.90;;
5343;SDS011;2694;48.954;8.928;2023-11-22T00:11:12;3.40;;;1.70;;
5343;SDS011;2694;48.954;8.928;2023-11-22T00:13:39;3.90;;;1.80;;
5343;SDS011;2694;48.954;8.928;2023-11-22T00:16:06;3.83;;;2.42;;
5343;SDS011;2694;48.954;8.928;2023-11-22T00:18:35;3.45;;;2.17;;
5343;SDS011;2694;48.954;8.928;2023-11-22T00:21:03;2.75;;;2.03;;
5343;SDS011;2694;48.954;8.928;2023-11-22T00:23:31;4.18;;;2.13;;
5343;SDS011;2694;48.954;8.928;2023-11-22T00:25:58;2.78;;;1.75;;
5343;SDS011;2694;48.954;8.928;2023-11-22T00:28:25;4.60;;;2.30;;
5343;SDS011;2694;48.954;8.928;2023-11-22T00:30:51;3.30;;;1.98;;
5343;SDS011;2694;48.954;8.928;2023-11-22T00:33:19;4.03;;;2.35;;
5343;SDS011;2694;48.954;8.928;2023-11-22T00:35:47;5.30;;;2.30;;
5343;SDS011;2694;48.954;8.928;2023-11-22T00:38:15;4.18;;;2.20;;
5343;SDS011;2694;48.954;8.928;2023-11-22T00:40:42;3.60;;;2.55;;
5343;SDS011;2694;48.954;8.928;2023-11-22T00:43:09;3.33;;;2.22;;
5343;SDS011;2694;48.954;8.928;2023-11-22T00:45:36;4.10;;;2.65;;
5343;SDS011;2694;48.954;8.928;2023-11-22T00:48:03;4.45;;;2.00;;
5343;SDS011;2694;48.954;8.928;2023-11-22T00:50:30;3.53;;;2.20;;
5343;SDS011;2694;48.954;8.928;2023-11-22T00:52:59;4.90;;;2.00;;
5343;SDS011;2694;48.954;8.928;2023-11-22T00:55:26;3.80;;;2.47;;
5343;SDS011;2694;48.954;8.928;2023-11-22T00:57:53;2.95;;;2.10;;
5343;SDS011;2694;48.954;8.928;2023-11-22T01:00:21;4.00;;;2.33;;
5343;SDS011;2694;48.954;8.928;2023-11-22T01:02:49;4.50;;;2.22;;
5343;SDS011;2694;48.954;8.928;2023-11-22T01:05:16;5.90;;;2.53;;
5343;SDS011;2694;48.954;8.928;2023-11-22T01:07:42;3.90;;;2.25;;
5343;SDS011;2694;48.954;8.928;2023-11-22T01:10:11;4.63;;;2.40;;
5343;SDS011;2694;48.954;8.928;2023-11-22T01:12:38;4.17;;;1.90;;
5343;SDS011;2694;48.954;8.928;2023-11-22T01:15:06;2.97;;;2.10;;
5343;SDS011;2694;48.954;8.928;2023-11-22T01:17:34;3.30;;;1.95;;
5343;SDS011;2694;48.954;8.928;2023-11-22T01:20:01;4.88;;;2.30;;
5343;SDS011;2694;48.954;8.928;2023-11-22T01:22:28;5.95;;;2.53;;
5343;SDS011;2694;48.954;8.928;2023-11-22T01:24:56;3.83;;;2.40;;
5343;SDS011;2694;48.954;8.928;2023-11-22T01:27:24;5.03;;;2.30;;
5343;SDS011;2694;48.954;8.928;2023-11-22T01:29:51;3.83;;;1.88;;
5343;SDS011;2694;48.954;8.928;2023-11-22T01:32:19;4.00;;;2.20;;
5343;SDS011;2694;48.954;8.928;2023-11-22T01:34:46;2.70;;;1.70;;
5343;SDS011;2694;48.954;8.928;2023-11-22T01:37:13;3.75;;;2.00;;
5343;SDS011;2694;48.954;8.928;2023-11-22T01:39:40;3.53;;;1.50;;
5343;SDS011;2694;48.954;8.928;2023-11-22T01:42:08;3.47;;;1.85;;
5343;SDS011;2694;48.954;8.928;2023-11-22T01:44:36;2.50;;;1.80;;
5343;SDS011;2694;48.954;8.928;2023-11-22T01:47:03;2.65;;;1.55;;
5343;SDS011;2694;48.954;8.928;2023-11-22T01:49:31;2.90;;;1.60;;
5343;SDS011;2694;48.954;8.928;2023-11-22T01:51:58;3.63;;;1.92;;
5343;SDS011;2694;48.954;8.928;2023-11-22T01:54:26;5.40;;;2.00;;
5343;SDS011;2694;48.954;8.928;2023-11-22T01:56:54;4.30;;;2.13;;
5343;SDS011;2694;48.954;8.928;2023-11-22T01:59:22;3.40;;;2.38;;
5343;SDS011;2694;48.954;8.928;2023-11-22T02:01:52;3.75;;;1.90;;
5343;SDS011;2694;48.954;8.928;2023-11-22T02:04:19;5.63;;;2.60;;
5343;SDS011;2694;48.954;8.928;2023-11-22T02:06:47;3.40;;;2.10;;
5343;SDS011;2694;48.954;8.928;2023-11-22T02:09:15;3.47;;;2.13;;
5343;SDS011;2694;48.954;8.928;2023-11-22T02:11:43;3.92;;;2.00;;
5343;SDS011;2694;48.954;8.928;2023-11-22T02:14:10;4.10;;;2.58;;
5343;SDS011;2694;48.954;8.928;2023-11-22T02:16:37;3.90;;;2.13;;
5343;SDS011;2694;48.954;8.928;2023-11-22T02:19:08;4.80;;;2.38;;
5343;SDS011;2694;48.954;8.928;2023-11-22T02:21:41;4.72;;;2.30;;
5343;SDS011;2694;48.954;8.928;2023-11-22T02:24:09;4.30;;;2.20;;
5343;SDS011;2694;48.954;8.928;2023-11-22T02:26:36;7.00;;;2.70;;
5343;SDS011;2694;48.954;8.928;2023-11-22T02:29:04;5.07;;;2.60;;
5343;SDS011;2694;48.954;8.928;2023-11-22T02:31:31;4.80;;;2.60;;
5343;SDS011;2694;48.954;8.928;2023-11-22T02:34:00;4.18;;;2.90;;
5343;SDS011;2694;48.954;8.928;2023-11-22T02:36:27;6.07;;;2.80;;
5343;SDS011;2694;48.954;8.928;2023-11-22T02:38:54;5.07;;;2.80;;
5343;SDS011;2694;48.954;8.928;2023-11-22T02:41:22;5.13;;;3.42;;
5343;SDS011;2694;48.954;8.928;2023-11-22T02:43:50;4.53;;;2.80;;
5343;SDS011;2694;48.954;8.928;2023-11-22T02:46:17;7.43;;;3.50;;
5343;SDS011;2694;48.954;8.928;2023-11-22T02:48:44;5.35;;;3.00;;
5343;SDS011;2694;48.954;8.928;2023-11-22T02:51:11;5.72;;;2.92;;
5343;SDS011;2694;48.954;8.928;2023-11-22T02:53:39;6.97;;;3.10;;
5343;SDS011;2694;48.954;8.928;2023-11-22T02:56:08;5.00;;;3.10;;
5343;SDS011;2694;48.954;8.928;2023-11-22T02:58:37;5.85;;;2.47;;
5343;SDS011;2694;48.954;8.928;2023-11-22T03:01:04;6.95;;;3.33;;
5343;SDS011;2694;48.954;8.928;2023-11-22T03:03:32;5.90;;;3.00;;
5343;SDS011;2694;48.954;8.928;2023-11-22T03:05:59;4.93;;;3.10;;
5343;SDS011;2694;48.954;8.928;2023-11-22T03:08:26;3.88;;;2.60;;
5343;SDS011;2694;48.954;8.928;2023-11-22T03:10:53;4.65;;;2.85;;
5343;SDS011;2694;48.954;8.928;2023-11-22T03:13:20;4.57;;;2.50;;
5343;SDS011;2694;48.954;8.928;2023-11-22T03:15:49;5.28;;;2.70;;
5343;SDS011;2694;48.954;8.928;2023-11-22T03:18:16;5.78;;;2.60;;
5343;SDS011;2694;48.954;8.928;2023-11-22T03:20:43;5.97;;;2.70;;
5343;SDS011;2694;48.954;8.928;2023-11-22T03:23:12;4.13;;;2.70;;
5343;SDS011;2694;48.954;8.928;2023-11-22T03:25:42;4.72;;;2.60;;
5343;SDS011;2694;48.954;8.928;2023-11-22T03:28:09;4.30;;;2.13;;
5343;SDS011;2694;48.954;8.928;2023-11-22T03:30:35;3.20;;;2.00;;
5343;SDS011;2694;48.954;8.928;2023-11-22T03:33:04;4.18;;;2.50;;
5343;SDS011;2694;48.954;8.928;2023-11-22T03:35:31;2.92;;;2.00;;
5343;SDS011;2694;48.954;8.928;2023-11-22T03:37:57;7.00;;;2.20;;
5343;SDS011;2694;48.954;8.928;2023-11-22T03:40:24;5.63;;;1.92;;
5343;SDS011;2694;48.954;8.928;2023-11-22T03:42:51;3.97;;;2.00;;
5343;SDS011;2694;48.954;8.928;2023-11-22T03:45:19;3.92;;;1.70;;
5343;SDS011;2694;48.954;8.928;2023-11-22T03:47:45;3.20;;;1.80;;
5343;SDS011;2694;48.954;8.928;2023-11-22T03:50:14;5.80;;;2.47;;
5343;SDS011;2694;48.954;8.928;2023-11-22T03:52:41;4.60;;;2.30;;
5343;SDS011;2694;48.954;8.928;2023-11-22T03:55:08;5.07;;;2.15;;
5343;SDS011;2694;48.954;8.928;2023-11-22T03:57:35;5.00;;;2.10;;
5343;SDS011;2694;48.954;8.928;2023-11-22T04:00:03;5.45;;;2.30;;
5343;SDS011;2694;48.954;8.928;2023-11-22T04:02:31;2.57;;;2.00;;
5343;SDS011;2694;48.954;8.928;2023-11-22T04:04:58;7.50;;;2.50;;
5343;SDS011;2694;48.954;8.928;2023-11-22T04:07:26;4.07;;;2.10;;
5343;SDS011;2694;48.954;8.928;2023-11-22T04:09:53;3.77;;;2.20;;
5343;SDS011;2694;48.954;8.928;2023-11-22T04:12:21;3.40;;;2.03;;
5343;SDS011;2694;48.954;8.928;2023-11-22T04:14:48;5.80;;;2.70;;
5343;SDS011;2694;48.954;8.928;2023-11-22T04:17:16;3.60;;;2.00;;
5343;SDS011;2694;48.954;8.928;2023-11-22T04:19:43;3.80;;;2.20;;
5343;SDS011;2694;48.954;8.928;2023-11-22T04:22:10;3.20;;;2.17;;
5343;SDS011;2694;48.954;8.928;2023-11-22T04:24:39;2.90;;;2.08;;
5343;SDS011;2694;48.954;8.928;2023-11-22T04:27:06;3.30;;;2.20;;
5343;SDS011;2694;48.954;8.928;2023-11-22T04:29:32;4.70;;;2.30;;
5343;SDS011;2694;48.954;8.928;2023-11-22T04:31:59;2.92;;;1.83;;
5343;SDS011;2694;48.954;8.928;2023-11-22T04:34:26;3.85;;;2.00;;
5343;SDS011;2694;48.954;8.928;2023-11-22T04:36:53;5.25;;;2.80;;
5343;SDS011;2694;48.954;8.928;2023-11-22T04:39:20;5.53;;;2.10;;
5343;SDS011;2694;48.954;8.928;2023-11-22T04:41:49;4.18;;;2.10;;
5343;SDS011;2694;48.954;8.928;2023-11-22T04:44:16;3.92;;;2.10;;
5343;SDS011;2694;48.954;8.928;2023-11-22T04:46:43;3.58;;;1.75;;
5343;SDS011;2694;48.954;8.928;2023-11-22T04:49:10;4.63;;;2.40;;
5343;SDS011;2694;48.954;8.928;2023-11-22T04:51:38;3.70;;;2.20;;
5343;SDS011;2694;48.954;8.928;2023-11-22T04:54:05;2.90;;;1.98;;
5343;SDS011;2694;48.954;8.928;2023-11-22T04:56:32;5.00;;;2.20;;
5343;SDS011;2694;48.954;8.928;2023-11-22T04:59:01;3.60;;;1.80;;
5343;SDS011;2694;48.954;8.928;2023-11-22T05:01:31;4.07;;;1.60;;
5343;SDS011;2694;48.954;8.928;2023-11-22T05:03:58;3.50;;;1.80;;
5343;SDS011;2694;48.954;8.928;2023-11-22T05:06:25;4.43;;;2.33;;
5343;SDS011;2694;48.954;8.928;2023-11-22T05:08:54;3.60;;;2.20;;
5343;SDS011;2694;48.954;8.928;2023-11-22T05:11:21;5.00;;;2.50;;
5343;SDS011;2694;48.954;8.928;2023-11-22T05:13:48;3.90;;;2.00;;
5343;SDS011;2694;48.954;8.928;2023-11-22T05:16:17;3.22;;;1.85;;
5343;SDS011;2694;48.954;8.928;2023-11-22T05:18:44;9.82;;;2.83;;
5343;SDS011;2694;48.954;8.928;2023-11-22T05:21:10;5.00;;;2.50;;
5343;SDS011;2694;48.954;8.928;2023-11-22T05:23:38;4.10;;;2.20;;
5343;SDS011;2694;48.954;8.928;2023-11-22T05:26:04;3.38;;;1.70;;
5343;SDS011;2694;48.954;8.928;2023-11-22T05:28:32;4.57;;;2.08;;
5343;SDS011;2694;48.954;8.928;2023-11-22T05:31:00;4.10;;;2.40;;
5343;SDS011;2694;48.954;8.928;2023-11-22T05:33:28;3.43;;;2.10;;
5343;SDS011;2694;48.954;8.928;2023-11-22T05:35:56;4.75;;;1.92;;
5343;SDS011;2694;48.954;8.928;2023-11-22T05:38:23;2.80;;;1.67;;
5343;SDS011;2694;48.954;8.928;2023-11-22T05:40:51;2.38;;;1.48;;
5343;SDS011;2694;48.954;8.928;2023-11-22T05:43:18;3.78;;;1.70;;
5343;SDS011;2694;48.954;8.928;2023-11-22T05:45:50;3.30;;;1.80;;
5343;SDS011;2694;48.954;8.928;2023-11-22T05:48:17;3.40;;;1.58;;
5343;SDS011;2694;48.954;8.928;2023-11-22T05:50:46;4.30;;;1.90;;
5343;SDS011;2694;48.954;8.928;2023-11-22T05:53:14;3.15;;;1.70;;
5343;SDS011;2694;48.954;8.928;2023-11-22T05:55:44;3.78;;;1.50;;
5343;SDS011;2694;48.954;8.928;2023-11-22T05:58:12;4.75;;;2.38;;
5343;SDS011;2694;48.954;8.928;2023-11-22T06:00:41;3.28;;;2.17;;
5343;SDS011;2694;48.954;8.928;2023-11-22T06:03:08;4.10;;;2.15;;
5343;SDS011;2694;48.954;8.928;2023-11-22T06:05:36;3.78;;;2.00;;
5343;SDS011;2694;48.954;8.928;2023-11-22T06:08:04;3.03;;;1.70;;
5343;SDS011;2694;48.954;8.928;2023-11-22T06:10:31;3.00;;;1.47;;
5343;SDS011;2694;48.954;8.928;2023-11-22T06:12:59;3.55;;;1.70;;
5343;SDS011;2694;48.954;8.928;2023-11-22T06:15:27;5.55;;;2.20;;
5343;SDS011;2694;48.954;8.928;2023-11-22T06:17:55;5.60;;;2.30;;
5343;SDS011;2694;48.954;8.928;2023-11-22T06:20:23;3.63;;;2.20;;
5343;SDS011;2694;48.954;8.928;2023-11-22T06:22:52;3.70;;;2.60;;
5343;SDS011;2694;48.954;8.928;2023-11-22T06:25:20;4.18;;;1.80;;
5343;SDS011;2694;48.954;8.928;2023-11-22T06:27:47;5.72;;;1.83;;
5343;SDS011;2694;48.954;8.928;2023-11-22T06:30:14;3.00;;;1.83;;
5343;SDS011;2694;48.954;8.928;2023-11-22T06:32:42;3.22;;;1.70;;
5343;SDS011;2694;48.954;8.928;2023-11-22T06:35:09;4.47;;;2.05;;
5343;SDS011;2694;48.954;8.928;2023-11-22T06:37:39;3.67;;;2.03;;
5343;SDS011;2694;48.954;8.928;2023-11-22T06:40:07;2.60;;;1.60;;
5343;SDS011;2694;48.954;8.928;2023-11-22T06:42:36;3.70;;;1.70;;
5343;SDS011;2694;48.954;8.928;2023-11-22T06:45:03;5.90;;;1.73;;
5343;SDS011;2694;48.954;8.928;2023-11-22T06:47:31;4.85;;;1.70;;
5343;SDS011;2694;48.954;8.928;2023-11-22T06:49:58;3.40;;;2.08;;
5343;SDS011;2694;48.954;8.928;2023-11-22T06:52:25;2.67;;;1.67;;
5343;SDS011;2694;48.954;8.928;2023-11-22T06:54:53;2.78;;;1.45;;
5343;SDS011;2694;48.954;8.928;2023-11-22T06:57:19;3.65;;;1.45;;
5343;SDS011;2694;48.954;8.928;2023-11-22T06:59:54;3.97;;;1.60;;
5343;SDS011;2694;48.954;8.928;2023-11-22T07:02:21;3.92;;;1.80;;
5343;SDS011;2694;48.954;8.928;2023-11-22T07:04:49;2.70;;;1.50;;
5343;SDS011;2694;48.954;8.928;2023-11-22T07:07:16;2.22;;;1.67;;
5343;SDS011;2694;48.954;8.928;2023-11-22T07:09:43;2.97;;;1.60;;
5343;SDS011;2694;48.954;8.928;2023-11-22T07:12:11;4.18;;;1.52;;
5343;SDS011;2694;48.954;8.928;2023-11-22T07:14:38;2.80;;;1.80;;
5343;SDS011;2694;48.954;8.928;2023-11-22T07:17:06;4.90;;;1.40;;
5343;SDS011;2694;48.954;8.928;2023-11-22T07:19:32;3.15;;;1.60;;
5343;SDS011;2694;48.954;8.928;2023-11-22T07:22:03;2.17;;;1.45;;
5343;SDS011;2694;48.954;8.928;2023-11-22T07:24:40;4.80;;;1.43;;
5343;SDS011;2694;48.954;8.928;2023-11-22T07:27:09;3.67;;;1.67;;
5343;SDS011;2694;48.954;8.928;2023-11-22T07:29:37;3.05;;;1.60;;
5343;SDS011;2694;48.954;8.928;2023-11-22T07:32:07;4.00;;;1.40;;
5343;SDS011;2694;48.954;8.928;2023-11-22T07:34:35;3.20;;;1.67;;
5343;SDS011;2694;48.954;8.928;2023-11-22T07:37:03;3.30;;;1.67;;
5343;SDS011;2694;48.954;8.928;2023-11-22T07:39:31;3.08;;;1.75;;
5343;SDS011;2694;48.954;8.928;2023-11-22T07:42:00;5.03;;;1.80;;
5343;SDS011;2694;48.954;8.928;2023-11-22T07:44:27;3.25;;;1.38;;
5343;SDS011;2694;48.954;8.928;2023-11-22T07:46:57;3.00;;;1.50;;
5343;SDS011;2694;48.954;8.928;2023-11-22T07:49:26;2.95;;;1.40;;
5343;SDS011;2694;48.954;8.928;2023-11-22T07:51:54;3.63;;;1.60;;
5343;SDS011;2694;48.954;8.928;2023-11-22T07:54:21;4.57;;;1.80;;
5343;SDS011;2694;48.954;8.928;2023-11-22T07:56:48;5.40;;;1.90;;
5343;SDS011;2694;48.954;8.928;2023-11-22T07:59:17;4.13;;;1.80;;
5343;SDS011;2694;48.954;8.928;2023-11-22T08:01:44;5.80;;;2.35;;
5343;SDS011;2694;48.954;8.928;2023-11-22T08:04:12;3.28;;;1.88;;
5343;SDS011;2694;48.954;8.928;2023-11-22T08:06:42;7.88;;;2.45;;
5343;SDS011;2694;48.954;8.928;2023-11-22T08:09:09;5.78;;;2.40;;
5343;SDS011;2694;48.954;8.928;2023-11-22T08:11:36;5.25;;;2.05;;
5343;SDS011;2694;48.954;8.928;2023-11-22T08:14:03;4.10;;;2.05;;
5343;SDS011;2694;48.954;8.928;2023-11-22T08:16:31;3.80;;;1.90;;
5343;SDS011;2694;48.954;8.928;2023-11-22T08:19:03;5.40;;;2.65;;
5343;SDS011;2694;48.954;8.928;2023-11-22T08:21:33;4.47;;;2.38;;
5343;SDS011;2694;48.954;8.928;2023-11-22T08:24:01;6.57;;;2.10;;
5343;SDS011;2694;48.954;8.928;2023-11-22T08:26:29;3.63;;;2.10;;
5343;SDS011;2694;48.954;8.928;2023-11-22T08:28:56;4.30;;;1.98;;
5343;SDS011;2694;48.954;8.928;2023-11-22T08:31:23;5.67;;;2.43;;
5343;SDS011;2694;48.954;8.928;2023-11-22T08:33:50;4.70;;;2.70;;
5343;SDS011;2694;48.954;8.928;2023-11-22T08:36:17;5.13;;;2.90;;
5343;SDS011;2694;48.954;8.928;2023-11-22T08:38:44;4.63;;;2.50;;
5343;SDS011;2694;48.954;8.928;2023-11-22T08:41:12;8.43;;;3.67;;
5343;SDS011;2694;48.954;8.928;2023-11-22T08:43:39;6.90;;;2.78;;
5343;SDS011;2694;48.954;8.928;2023-11-22T08:46:07;7.70;;;3.45;;
5343;SDS011;2694;48.954;8.928;2023-11-22T08:48:36;7.75;;;3.13;;
5343;SDS011;2694;48.954;8.928;2023-11-22T08:51:03;6.15;;;2.80;;
5343;SDS011;2694;48.954;8.928;2023-11-22T08:53:32;5.50;;;2.58;;
5343;SDS011;2694;48.954;8.928;2023-11-22T08:55:59;6.07;;;2.97;;
5343;SDS011;2694;48.954;8.928;2023-11-22T08:58:31;5.85;;;2.83;;
5343;SDS011;2694;48.954;8.928;2023-11-22T09:00:58;4.75;;;2.42;;
5343;SDS011;2694;48.954;8.928;2023-11-22T09:03:25;5.35;;;2.60;;
5343;SDS011;2694;48.954;8.928;2023-11-22T09:05:53;5.90;;;2.78;;
5343;SDS011;2694;48.954;8.928;2023-11-22T09:08:20;6.80;;;2.80;;
5343;SDS011;2694;48.954;8.928;2023-11-22T09:10:47;9.50;;;4.50;;
5343;SDS011;2694;48.954;8.928;2023-11-22T09:13:15;5.30;;;2.70;;
5343;SDS011;2694;48.954;8.928;2023-11-22T09:15:45;6.10;;;2.80;;
5343;SDS011;2694;48.954;8.928;2023-11-22T09:18:12;5.85;;;2.70;;
5343;SDS011;2694;48.954;8.928;2023-11-22T09:20:39;5.13;;;2.40;;
5343;SDS011;2694;48.954;8.928;2023-11-22T09:23:09;5.70;;;2.80;;
5343;SDS011;2694;48.954;8.928;2023-11-22T09:25:37;6.38;;;2.50;;
5343;SDS011;2694;48.954;8.928;2023-11-22T09:28:04;5.72;;;2.53;;
5343;SDS011;2694;48.954;8.928;2023-11-22T09:30:32;4.50;;;2.45;;
5343;SDS011;2694;48.954;8.928;2023-11-22T09:33:02;4.53;;;2.53;;
5343;SDS011;2694;48.954;8.928;2023-11-22T09:35:30;4.13;;;2.63;;
5343;SDS011;2694;48.954;8.928;2023-11-22T09:37:58;7.50;;;3.17;;
5343;SDS011;2694;48.954;8.928;2023-11-22T09:40:26;10.20;;;2.83;;
5343;SDS011;2694;48.954;8.928;2023-11-22T09:42:54;5.00;;;2.60;;
5343;SDS011;2694;48.954;8.928;2023-11-22T09:45:22;9.13;;;2.65;;
5343;SDS011;2694;48.954;8.928;2023-11-22T09:47:50;6.57;;;2.22;;
5343;SDS011;2694;48.954;8.928;2023-11-22T09:50:19;5.35;;;2.70;;
5343;SDS011;2694;48.954;8.928;2023-11-22T09:52:49;4.78;;;2.70;;
5343;SDS011;2694;48.954;8.928;2023-11-22T09:55:19;6.28;;;2.90;;
5343;SDS011;2694;48.954;8.928;2023-11-22T09:57:47;4.15;;;2.20;;
5343;SDS011;2694;48.954;8.928;2023-11-22T10:00:16;7.22;;;2.53;;
5343;SDS011;2694;48.954;8.928;2023-11-22T10:02:44;6.70;;;2.70;;
5343;SDS011;2694;48.954;8.928;2023-11-22T10:05:11;6.13;;;2.30;;
5343;SDS011;2694;48.954;8.928;2023-11-22T10:07:40;4.40;;;2.30;;
5343;SDS011;2694;48.954;8.928;2023-11-22T10:10:07;4.03;;;2.13;;
5343;SDS011;2694;48.954;8.928;2023-11-22T10:12:36;8.00;;;2.88;;
5343;SDS011;2694;48.954;8.928;2023-11-22T10:15:11;7.93;;;2.53;;
5343;SDS011;2694;48.954;8.928;2023-11-22T10:17:39;5.72;;;2.60;;
5343;SDS011;2694;48.954;8.928;2023-11-22T10:20:07;5.38;;;2.50;;
5343;SDS011;2694;48.954;8.928;2023-11-22T10:22:44;5.90;;;2.60;;
5343;SDS011;2694;48.954;8.928;2023-11-22T10:25:13;5.30;;;2.70;;
5343;SDS011;2694;48.954;8.928;2023-11-22T10:27:43;5.57;;;2.70;;
5343;SDS011;2694;48.954;8.928;2023-11-22T10:30:12;6.43;;;3.00;;
5343;SDS011;2694;48.954;8.928;2023-11-22T10:32:40;6.03;;;2.70;;
5343;SDS011;2694;48.954;8.928;2023-11-22T10:35:07;7.88;;;4.10;;
5343;SDS011;2694;48.954;8.928;2023-11-22T10:37:35;7.25;;;3.60;;
5343;SDS011;2694;48.954;8.928;2023-11-22T10:40:03;5.78;;;3.35;;
5343;SDS011;2694;48.954;8.928;2023-11-22T10:42:35;8.55;;;4.65;;
5343;SDS011;2694;48.954;8.928;2023-11-22T10:45:05;5.80;;;2.90;;
5343;SDS011;2694;48.954;8.928;2023-11-22T10:47:34;4.68;;;2.60;;
5343;SDS011;2694;48.954;8.928;2023-11-22T10:50:04;4.80;;;2.50;;
5343;SDS011;2694;48.954;8.928;2023-11-22T10:52:33;6.33;;;2.80;;
5343;SDS011;2694;48.954;8.928;2023-11-22T10:55:04;5.80;;;3.00;;
5343;SDS011;2694;48.954;8.928;2023-11-22T10:57:32;4.65;;;2.38;;
5343;SDS011;2694;48.954;8.928;2023-11-22T11:00:06;6.18;;;3.30;;
5343;SDS011;2694;48.954;8.928;2023-11-22T11:02:40;4.78;;;2.70;;
5343;SDS011;2694;48.954;8.928;2023-11-22T11:05:11;6.43;;;2.90;;
5343;SDS011;2694;48.954;8.928;2023-11-22T11:07:44;4.95;;;2.50;;
5343;SDS011;2694;48.954;8.928;2023-11-22T11:10:18;4.82;;;2.75;;
5343;SDS011;2694;48.954;8.928;2023-11-22T11:12:47;5.60;;;2.60;;
5343;SDS011;2694;48.954;8.928;2023-11-22T11:15:15;6.10;;;3.05;;
5343;SDS011;2694;48.954;8.928;2023-11-22T11:17:43;4.45;;;2.60;;
5343;SDS011;2694;48.954;8.928;2023-11-22T11:20:13;6.47;;;3.15;;
5343;SDS011;2694;48.954;8.928;2023-11-22T11:22:43;4.78;;;2.85;;
5343;SDS011;2694;48.954;8.928;2023-11-22T11:25:13;5.00;;;2.70;;
5343;SDS011;2694;48.954;8.928;2023-11-22T11:27:43;4.18;;;2.30;;
5343;SDS011;2694;48.954;8.928;2023-11-22T11:33:13;4.90;;;2.90;;
5343;SDS011;2694;48.954;8.928;2023-11-22T11:35:42;6.32;;;3.22;;
5343;SDS011;2694;48.954;8.928;2023-11-22T11:38:12;7.82;;;2.58;;
5343;SDS011;2694;48.954;8.928;2023-11-22T11:40:40;7.07;;;2.80;;
5343;SDS011;2694;48.954;8.928;2023-11-22T11:43:09;6.15;;;3.20;;
5343;SDS011;2694;48.954;8.928;2023-11-22T11:45:38;10.48;;;3.20;;
5343;SDS011;2694;48.954;8.928;2023-11-22T11:48:10;4.88;;;2.40;;
5343;SDS011;2694;48.954;8.928;2023-11-22T11:50:39;7.75;;;3.08;;
5343;SDS011;2694;48.954;8.928;2023-11-22T11:53:06;6.65;;;2.92;;
5343;SDS011;2694;48.954;8.928;2023-11-22T11:55:33;7.60;;;3.27;;
5343;SDS011;2694;48.954;8.928;2023-11-22T11:58:03;6.20;;;3.03;;
5343;SDS011;2694;48.954;8.928;2023-11-22T12:00:35;6.03;;;3.33;;
5343;SDS011;2694;48.954;8.928;2023-11-22T12:03:05;5.55;;;2.97;;
5343;SDS011;2694;48.954;8.928;2023-11-22T12:05:34;8.05;;;3.38;;
5343;SDS011;2694;48.954;8.928;2023-11-22T12:08:01;5.88;;;3.47;;
5343;SDS011;2694;48.954;8.928;2023-11-22T12:10:28;5.30;;;3.00;;
5343;SDS011;2694;48.954;8.928;2023-11-22T12:12:55;6.13;;;3.40;;
5343;SDS011;2694;48.954;8.928;2023-11-22T12:15:23;12.00;;;3.60;;
5343;SDS011;2694;48.954;8.928;2023-11-22T12:17:53;9.17;;;3.80;;
5343;SDS011;2694;48.954;8.928;2023-11-22T12:20:22;6.55;;;3.10;;
5343;SDS011;2694;48.954;8.928;2023-11-22T12:22:51;7.82;;;3.75;;
5343;SDS011;2694;48.954;8.928;2023-11-22T12:25:18;7.10;;;3.25;;
5343;SDS011;2694;48.954;8.928;2023-11-22T12:27:46;10.52;;;3.40;;
5343;SDS011;2694;48.954;8.928;2023-11-22T12:33:05;5.50;;;3.10;;
5343;SDS011;2694;48.954;8.928;2023-11-22T12:35:33;5.30;;;3.00;;
5343;SDS011;2694;48.954;8.928;2023-11-22T12:38:01;8.55;;;3.42;;
5343;SDS011;2694;48.954;8.928;2023-11-22T12:40:31;6.63;;;3.40;;
5343;SDS011;2694;48.954;8.928;2023-11-22T12:42:58;7.30;;;3.50;;
5343;SDS011;2694;48.954;8.928;2023-11-22T12:45:26;5.75;;;3.22;;
5343;SDS011;2694;48.954;8.928;2023-11-22T12:47:54;6.22;;;3.53;;
5343;SDS011;2694;48.954;8.928;2023-11-22T12:50:31;9.25;;;4.00;;
5343;SDS011;2694;48.954;8.928;2023-11-22T12:53:07;9.18;;;3.97;;
5343;SDS011;2694;48.954;8.928;2023-11-22T12:55:35;6.45;;;3.38;;
5343;SDS011;2694;48.954;8.928;2023-11-22T12:58:03;6.40;;;3.00;;
5343;SDS011;2694;48.954;8.928;2023-11-22T13:00:30;10.13;;;3.90;;
5343;SDS011;2694;48.954;8.928;2023-11-22T13:02:58;9.25;;;3.20;;
5343;SDS011;2694;48.954;8.928;2023-11-22T13:05:25;7.03;;;3.20;;
5343;SDS011;2694;48.954;8.928;2023-11-22T13:07:53;6.63;;;3.38;;
5343;SDS011;2694;48.954;8.928;2023-11-22T13:10:20;7.53;;;2.80;;
5343;SDS011;2694;48.954;8.928;2023-11-22T13:12:52;6.63;;;3.38;;
5343;SDS011;2694;48.954;8.928;2023-11-22T13:15:20;6.75;;;3.10;;
5343;SDS011;2694;48.954;8.928;2023-11-22T13:17:49;6.47;;;3.30;;
5343;SDS011;2694;48.954;8.928;2023-11-22T13:20:20;8.70;;;4.22;;
5343;SDS011;2694;48.954;8.928;2023-11-22T13:22:51;5.97;;;3.30;;
5343;SDS011;2694;48.954;8.928;2023-11-22T13:25:19;7.60;;;3.33;;
5343;SDS011;2694;48.954;8.928;2023-11-22T13:27:46;5.70;;;3.30;;
5343;SDS011;2694;48.954;8.928;2023-11-22T13:30:14;6.22;;;3.40;;
5343;SDS011;2694;48.954;8.928;2023-11-22T13:32:44;7.85;;;3.50;;
5343;SDS011;2694;48.954;8.928;2023-11-22T13:35:11;6.50;;;3.53;;
5343;SDS011;2694;48.954;8.928;2023-11-22T13:37:42;6.50;;;3.50;;
5343;SDS011;2694;48.954;8.928;2023-11-22T13:40:11;9.02;;;3.83;;
5343;SDS011;2694;48.954;8.928;2023-11-22T13:42:44;6.53;;;3.20;;
5343;SDS011;2694;48.954;8.928;2023-11-22T13:45:12;6.10;;;3.28;;
5343;SDS011;2694;48.954;8.928;2023-11-22T13:47:42;8.50;;;3.75;;
5343;SDS011;2694;48.954;8.928;2023-11-22T13:50:12;10.05;;;3.35;;
5343;SDS011;2694;48.954;8.928;2023-11-22T13:52:40;5.53;;;3.10;;
5343;SDS011;2694;48.954;8.928;2023-11-22T13:55:08;4.85;;;3.10;;
5343;SDS011;2694;48.954;8.928;2023-11-22T13:57:37;6.45;;;3.35;;
5343;SDS011;2694;48.954;8.928;2023-11-22T14:00:07;5.90;;;3.22;;
5343;SDS011;2694;48.954;8.928;2023-11-22T14:02:37;6.18;;;2.80;;
5343;SDS011;2694;48.954;8.928;2023-11-22T14:05:05;6.80;;;3.28;;
5343;SDS011;2694;48.954;8.928;2023-11-22T14:07:34;5.72;;;3.00;;
5343;SDS011;2694;48.954;8.928;2023-11-22T14:10:02;11.20;;;3.50;;
5343;SDS011;2694;48.954;8.928;2023-11-22T14:12:30;5.75;;;3.22;;
5343;SDS011;2694;48.954;8.928;2023-11-22T14:14:57;6.78;;;3.50;;
5343;SDS011;2694;48.954;8.928;2023-11-22T14:17:25;7.13;;;3.28;;
5343;SDS011;2694;48.954;8.928;2023-11-22T14:19:52;8.52;;;3.45;;
5343;SDS011;2694;48.954;8.928;2023-11-22T14:22:21;4.50;;;2.65;;
5343;SDS011;2694;48.954;8.928;2023-11-22T14:24:51;4.90;;;2.83;;
5343;SDS011;2694;48.954;8.928;2023-11-22T14:27:18;7.20;;;3.10;;
5343;SDS011;2694;48.954;8.928;2023-11-22T14:29:45;7.37;;;3.17;;
5343;SDS011;2694;48.954;8.928;2023-11-22T14:32:14;5.38;;;3.10;;
5343;SDS011;2694;48.954;8.928;2023-11-22T14:34:42;5.50;;;3.45;;
5343;SDS011;2694;48.954;8.928;2023-11-22T14:37:09;5.80;;;2.58;;
5343;SDS011;2694;48.954;8.928;2023-11-22T14:39:37;5.72;;;3.28;;
5343;SDS011;2694;48.954;8.928;2023-11-22T14:42:04;6.72;;;3.20;;
5343;SDS011;2694;48.954;8.928;2023-11-22T14:44:32;7.28;;;2.97;;
5343;SDS011;2694;48.954;8.928;2023-11-22T14:47:00;7.53;;;3.38;;
5343;SDS011;2694;48.954;8.928;2023-11-22T14:49:31;5.15;;;2.97;;
5343;SDS011;2694;48.954;8.928;2023-11-22T14:52:00;6.50;;;3.08;;
5343;SDS011;2694;48.954;8.928;2023-11-22T14:54:28;8.70;;;3.28;;
5343;SDS011;2694;48.954;8.928;2023-11-22T14:56:56;5.78;;;3.10;;
5343;SDS011;2694;48.954;8.928;2023-11-22T14:59:27;6.07;;;2.70;;
5343;SDS011;2694;48.954;8.928;2023-11-22T15:01:54;3.83;;;2.60;;
5343;SDS011;2694;48.954;8.928;2023-11-22T15:04:21;7.03;;;3.80;;
5343;SDS011;2694;48.954;8.928;2023-11-22T15:06:48;5.85;;;3.10;;
5343;SDS011;2694;48.954;8.928;2023-11-22T15:09:17;6.10;;;2.70;;
5343;SDS011;2694;48.954;8.928;2023-11-22T15:11:46;8.13;;;3.90;;
5343;SDS011;2694;48.954;8.928;2023-11-22T15:14:13;5.53;;;2.80;;
5343;SDS011;2694;48.954;8.928;2023-11-22T15:16:41;5.28;;;2.90;;
5343;SDS011;2694;48.954;8.928;2023-11-22T15:19:08;5.60;;;3.28;;
5343;SDS011;2694;48.954;8.928;2023-11-22T15:21:35;7.93;;;3.30;;
5343;SDS011;2694;48.954;8.928;2023-11-22T15:24:02;7.07;;;3.25;;
5343;SDS011;2694;48.954;8.928;2023-11-22T15:26:31;5.32;;;3.28;;